Station Historical Data
Daily Summary for March 29, 2017 Units:  English    Metric   Both
« Previous Day
Next Day »
Daily Weekly Monthly Yearly Custom
  High: Low: Average:
Temperature: 52.8 °F 31.8 °F 43.3 °F
Dew Point: 38.2 °F 28.0 °F 32.3 °F
Humidity: 89% 46% 67%
Wind Speed: 11.0mph 0.0mph 2.6mph
Wind Gust: 14.0mph - -
Wind- - SSE
Pressure: 30.31 in 30.16 in -
Precipitation: 0.00 in    
Historical Graphs
 
 
Tabular Data for March 29, 2017
Time Temperature Dew Point Pressure Wind Wind Speed Wind Gust Humidity Rainfall Rate (Hourly)
00:04 42.2 °F 36.5 °F 30.16 in NNW 6.0 mph 10.0 mph 80% 0.00 in
00:09 42.2 °F 36.5 °F 30.16 in NW 2.0 mph 8.0 mph 80% 0.00 in
00:14 42.1 °F 36.4 °F 30.16 in NNW 4.0 mph 8.0 mph 80% 0.00 in
00:19 41.9 °F 35.9 °F 30.16 in NNW 4.0 mph 9.0 mph 79% 0.00 in
00:24 41.9 °F 35.9 °F 30.17 in NNW 5.0 mph 9.0 mph 79% 0.00 in
00:29 41.8 °F 35.8 °F 30.17 in NNW 4.0 mph 8.0 mph 79% 0.00 in
00:34 41.8 °F 35.8 °F 30.17 in North 4.0 mph 7.0 mph 79% 0.00 in
00:39 41.8 °F 36.1 °F 30.17 in North 3.0 mph 7.0 mph 80% 0.00 in
00:44 41.7 °F 36.0 °F 30.17 in NNW 3.0 mph 8.0 mph 80% 0.00 in
00:49 41.7 °F 36.0 °F 30.17 in NNW 2.0 mph 6.0 mph 80% 0.00 in
00:54 41.7 °F 36.0 °F 30.17 in NNW 4.0 mph 7.0 mph 80% 0.00 in
00:59 41.6 °F 35.9 °F 30.17 in North 6.0 mph 8.0 mph 80% 0.00 in
01:04 41.5 °F 35.8 °F 30.17 in NNW 3.0 mph 6.0 mph 80% 0.00 in
01:09 41.5 °F 35.8 °F 30.17 in NNW 5.0 mph 6.0 mph 80% 0.00 in
01:14 41.4 °F 35.7 °F 30.17 in NNW 2.0 mph 7.0 mph 80% 0.00 in
01:19 41.4 °F 36.0 °F 30.17 in NNW 2.0 mph 7.0 mph 81% 0.00 in
01:24 41.4 °F 36.0 °F 30.17 in NNW 2.0 mph 7.0 mph 81% 0.00 in
01:29 41.3 °F 35.9 °F 30.17 in NNW 3.0 mph 7.0 mph 81% 0.00 in
01:34 41.2 °F 35.8 °F 30.18 in NNW 2.0 mph 9.0 mph 81% 0.00 in
01:39 41.1 °F 35.4 °F 30.17 in North 3.0 mph 9.0 mph 80% 0.00 in
01:44 40.9 °F 35.2 °F 30.17 in NNW 4.0 mph 7.0 mph 80% 0.00 in
01:49 40.7 °F 35.0 °F 30.17 in NNW 4.0 mph 7.0 mph 80% 0.00 in
01:54 40.6 °F 34.9 °F 30.17 in NNW 2.0 mph 5.0 mph 80% 0.00 in
01:59 40.5 °F 34.8 °F 30.17 in North 1.0 mph 5.0 mph 80% 0.00 in
02:04 40.3 °F 34.6 °F 30.17 in NNW 1.0 mph 4.0 mph 80% 0.00 in
02:09 40.1 °F 34.4 °F 30.17 in NNW 1.0 mph 2.0 mph 80% 0.00 in
02:14 40.0 °F 34.6 °F 30.17 in NNW 1.0 mph 2.0 mph 81% 0.00 in
02:19 39.8 °F 34.4 °F 30.18 in NW 1.0 mph 3.0 mph 81% 0.00 in
02:24 39.7 °F 34.3 °F 30.18 in NNW 1.0 mph 4.0 mph 81% 0.00 in
02:29 39.7 °F 34.3 °F 30.18 in NNW 1.0 mph 4.0 mph 81% 0.00 in
02:34 39.6 °F 34.2 °F 30.18 in NNW 1.0 mph 4.0 mph 81% 0.00 in
02:39 39.6 °F 34.2 °F 30.19 in NNW 1.0 mph 3.0 mph 81% 0.00 in
02:44 39.6 °F 34.2 °F 30.19 in NNW 1.0 mph 4.0 mph 81% 0.00 in
02:49 39.8 °F 34.4 °F 30.20 in NW 1.0 mph 4.0 mph 81% 0.00 in
02:54 39.8 °F 34.4 °F 30.20 in NNW 2.0 mph 8.0 mph 81% 0.00 in
02:59 39.8 °F 34.1 °F 30.20 in NNW 3.0 mph 8.0 mph 80% 0.00 in
03:04 39.7 °F 34.0 °F 30.19 in NW 1.0 mph 4.0 mph 80% 0.00 in
03:09 39.6 °F 33.9 °F 30.19 in NNW 2.0 mph 3.0 mph 80% 0.00 in
03:14 39.6 °F 33.9 °F 30.19 in NNW 2.0 mph 6.0 mph 80% 0.00 in
03:19 39.5 °F 33.8 °F 30.19 in North 3.0 mph 4.0 mph 80% 0.00 in
03:24 39.4 °F 33.7 °F 30.20 in NNW 2.0 mph 4.0 mph 80% 0.00 in
03:29 39.3 °F 33.6 °F 30.20 in NNW 1.0 mph 5.0 mph 80% 0.00 in
03:34 39.3 °F 33.6 °F 30.20 in NNW 1.0 mph 5.0 mph 80% 0.00 in
03:39 39.2 °F 33.5 °F 30.19 in North 3.0 mph 5.0 mph 80% 0.00 in
03:44 39.2 °F 33.5 °F 30.20 in NNW 2.0 mph 6.0 mph 80% 0.00 in
03:49 39.1 °F 33.5 °F 30.19 in NNW 3.0 mph 7.0 mph 80% 0.00 in
03:54 39.0 °F 33.4 °F 30.19 in NNW 1.0 mph 5.0 mph 80% 0.00 in
03:59 38.9 °F 33.3 °F 30.19 in NNW 2.0 mph 5.0 mph 80% 0.00 in
04:04 38.8 °F 33.2 °F 30.19 in NNW 2.0 mph 6.0 mph 80% 0.00 in
04:09 38.7 °F 33.1 °F 30.19 in NNW 2.0 mph 6.0 mph 80% 0.00 in
04:14 38.6 °F 33.3 °F 30.19 in NNW 2.0 mph 5.0 mph 81% 0.00 in
04:19 38.5 °F 33.2 °F 30.19 in NNE 2.0 mph 5.0 mph 81% 0.00 in
04:24 38.3 °F 33.0 °F 30.19 in Calm   3.0 mph 81% 0.00 in
04:29 38.2 °F 32.9 °F 30.19 in North 1.0 mph 3.0 mph 81% 0.00 in
04:34 38.0 °F 33.0 °F 30.20 in Calm   2.0 mph 82% 0.00 in
04:39 37.7 °F 32.7 °F 30.20 in Calm   1.0 mph 82% 0.00 in
04:44 37.7 °F 32.7 °F 30.20 in Calm     82% 0.00 in
04:49 37.7 °F 32.7 °F 30.19 in NNW 1.0 mph 2.0 mph 82% 0.00 in
04:54 37.6 °F 32.9 °F 30.20 in Calm   2.0 mph 83% 0.00 in
04:59 37.6 °F 32.9 °F 30.20 in Calm   2.0 mph 83% 0.00 in
05:04 37.4 °F 32.7 °F 30.20 in Calm     83% 0.00 in
05:09 37.2 °F 32.5 °F 30.20 in Calm     83% 0.00 in
05:14 36.9 °F 32.2 °F 30.20 in Calm     83% 0.00 in
05:19 36.7 °F 32.0 °F 30.20 in Calm     83% 0.00 in
05:24 36.5 °F 32.1 °F 30.20 in Calm     84% 0.00 in
05:29 36.1 °F 31.7 °F 30.20 in Calm     84% 0.00 in
05:34 35.9 °F 31.5 °F 30.20 in Calm     84% 0.00 in
05:39 35.5 °F 31.1 °F 30.20 in Calm     84% 0.00 in
05:44 35.2 °F 31.1 °F 30.20 in Calm     85% 0.00 in
05:49 34.9 °F 30.8 °F 30.20 in Calm     85% 0.00 in
05:54 34.6 °F 30.8 °F 30.20 in Calm     86% 0.00 in
05:59 34.4 °F 30.6 °F 30.20 in North 1.0 mph 2.0 mph 86% 0.00 in
06:04 34.4 °F 30.6 °F 30.20 in Calm   2.0 mph 86% 0.00 in
06:09 34.4 °F 30.6 °F 30.21 in Calm   2.0 mph 86% 0.00 in
06:14 34.3 °F 30.5 °F 30.21 in Calm     86% 0.00 in
06:19 34.2 °F 30.4 °F 30.21 in Calm     86% 0.00 in
06:24 34.0 °F 30.3 °F 30.21 in Calm     86% 0.00 in
06:29 33.9 °F 30.2 °F 30.20 in Calm     86% 0.00 in
06:34 33.7 °F 30.0 °F 30.21 in Calm   2.0 mph 86% 0.00 in
06:39 33.5 °F 29.8 °F 30.21 in Calm   2.0 mph 86% 0.00 in
06:44 33.5 °F 29.8 °F 30.21 in Calm   1.0 mph 86% 0.00 in
06:49 33.3 °F 29.6 °F 30.22 in Calm     86% 0.00 in
06:54 33.2 °F 29.5 °F 30.22 in Calm     86% 0.00 in
06:59 33.0 °F 29.3 °F 30.22 in Calm     86% 0.00 in
07:04 32.8 °F 29.1 °F 30.22 in Calm     86% 0.00 in
07:09 32.6 °F 28.9 °F 30.22 in Calm     86% 0.00 in
07:14 32.4 °F 28.4 °F 30.22 in Calm     85% 0.00 in
07:19 32.3 °F 28.3 °F 30.22 in Calm     85% 0.00 in
07:24 32.2 °F 28.2 °F 30.23 in Calm     85% 0.00 in
07:29 32.1 °F 28.4 °F 30.23 in Calm     86% 0.00 in
07:34 32.0 °F 28.3 °F 30.23 in Calm     86% 0.00 in
07:39 31.9 °F 28.2 °F 30.23 in Calm     86% 0.00 in
07:44 31.9 °F 28.2 °F 30.23 in Calm     86% 0.00 in
07:49 31.8 °F 28.1 °F 30.24 in Calm     86% 0.00 in
07:54 31.9 °F 28.5 °F 30.24 in Calm     87% 0.00 in
07:59 32.7 °F 29.8 °F 30.24 in Calm     89% 0.00 in
08:04 35.0 °F 32.1 °F 30.24 in Calm     89% 0.00 in
08:09 36.0 °F 32.8 °F 30.25 in Calm     88% 0.00 in
08:14 36.4 °F 32.9 °F 30.25 in Calm     87% 0.00 in
08:19 36.6 °F 33.1 °F 30.25 in Calm   1.0 mph 87% 0.00 in
08:24 36.8 °F 33.0 °F 30.25 in Calm     86% 0.00 in
08:29 37.4 °F 33.6 °F 30.25 in Calm     86% 0.00 in
08:34 38.1 °F 33.7 °F 30.25 in Calm     84% 0.00 in
08:39 38.7 °F 34.0 °F 30.25 in Calm     83% 0.00 in
08:44 39.7 °F 34.7 °F 30.26 in Calm   1.0 mph 82% 0.00 in
08:49 40.5 °F 35.1 °F 30.26 in Calm   2.0 mph 81% 0.00 in
08:54 41.2 °F 35.2 °F 30.26 in Calm   2.0 mph 79% 0.00 in
08:59 41.1 °F 35.1 °F 30.26 in Calm     79% 0.00 in
09:04 41.3 °F 35.3 °F 30.26 in Calm   3.0 mph 79% 0.00 in
09:09 41.5 °F 35.8 °F 30.26 in ESE 2.0 mph 4.0 mph 80% 0.00 in
09:14 42.1 °F 35.7 °F 30.26 in ESE 1.0 mph 4.0 mph 78% 0.00 in
09:19 42.6 °F 35.9 °F 30.26 in East 1.0 mph 3.0 mph 77% 0.00 in
09:24 42.7 °F 36.0 °F 30.26 in NE 2.0 mph 3.0 mph 77% 0.00 in
09:29 43.3 °F 36.6 °F 30.26 in NE 1.0 mph 3.0 mph 77% 0.00 in
09:34 43.6 °F 36.5 °F 30.27 in Calm   3.0 mph 76% 0.00 in
09:39 44.2 °F 37.1 °F 30.26 in Calm   4.0 mph 76% 0.00 in
09:44 44.0 °F 36.6 °F 30.27 in ENE 1.0 mph 4.0 mph 75% 0.00 in
09:49 44.4 °F 37.3 °F 30.26 in ENE 1.0 mph 5.0 mph 76% 0.00 in
09:54 44.3 °F 36.5 °F 30.26 in ENE 1.0 mph 5.0 mph 74% 0.00 in
09:59 45.2 °F 38.1 °F 30.26 in ENE 2.0 mph 5.0 mph 76% 0.00 in
10:04 44.5 °F 36.4 °F 30.27 in NNE 1.0 mph 4.0 mph 73% 0.00 in
10:09 45.3 °F 37.2 °F 30.27 in NNW 1.0 mph 3.0 mph 73% 0.00 in
10:14 46.3 °F 38.1 °F 30.27 in NNE 2.0 mph 5.0 mph 73% 0.00 in
10:19 45.7 °F 36.8 °F 30.27 in NNE 2.0 mph 3.0 mph 71% 0.00 in
10:24 47.1 °F 38.2 °F 30.27 in East 2.0 mph 4.0 mph 71% 0.00 in
10:29 47.1 °F 38.2 °F 30.27 in East 3.0 mph 5.0 mph 71% 0.00 in
10:34 47.3 °F 38.0 °F 30.27 in Calm   5.0 mph 70% 0.00 in
10:39 47.1 °F 36.3 °F 30.28 in NNE 2.0 mph 5.0 mph 66% 0.00 in
10:44 47.6 °F 37.6 °F 30.28 in ENE 2.0 mph 8.0 mph 68% 0.00 in
10:49 47.7 °F 36.5 °F 30.28 in ENE 2.0 mph 8.0 mph 65% 0.00 in
10:54 47.8 °F 35.4 °F 30.28 in North 1.0 mph 5.0 mph 62% 0.00 in
10:59 48.7 °F 35.4 °F 30.28 in NNW 2.0 mph 6.0 mph 60% 0.00 in
11:04 49.2 °F 35.9 °F 30.27 in NNW 3.0 mph 7.0 mph 60% 0.00 in
11:09 48.8 °F 33.3 °F 30.27 in NNW 2.0 mph 7.0 mph 55% 0.00 in
11:14 48.3 °F 32.4 °F 30.27 in South 1.0 mph 7.0 mph 54% 0.00 in
11:19 48.9 °F 32.5 °F 30.27 in NNE 4.0 mph 6.0 mph 53% 0.00 in
11:24 49.3 °F 32.4 °F 30.28 in NNE 3.0 mph 7.0 mph 52% 0.00 in
11:29 48.8 °F 32.9 °F 30.28 in North 2.0 mph 5.0 mph 54% 0.00 in
11:34 49.0 °F 31.2 °F 30.28 in NW 1.0 mph 5.0 mph 50% 0.00 in
11:39 49.2 °F 31.3 °F 30.28 in NNE 2.0 mph 5.0 mph 50% 0.00 in
11:44 49.2 °F 32.8 °F 30.28 in NNE 4.0 mph 7.0 mph 53% 0.00 in
11:49 49.3 °F 30.9 °F 30.28 in North 3.0 mph 7.0 mph 49% 0.00 in
11:54 49.2 °F 31.8 °F 30.27 in NW 3.0 mph 7.0 mph 51% 0.00 in
11:59 49.7 °F 31.8 °F 30.27 in West 3.0 mph 5.0 mph 50% 0.00 in
12:04 49.9 °F 31.5 °F 30.27 in NW 3.0 mph 7.0 mph 49% 0.00 in
12:09 50.3 °F 30.8 °F 30.27 in West 3.0 mph 13.0 mph 47% 0.00 in
12:14 50.7 °F 33.7 °F 30.28 in WNW 6.0 mph 6.0 mph 52% 0.00 in
12:19 51.3 °F 33.3 °F 30.27 in NNW 9.0 mph 11.0 mph 50% 0.00 in
12:24 51.1 °F 32.6 °F 30.27 in North 5.0 mph 11.0 mph 49% 0.00 in
12:29 50.2 °F 31.8 °F 30.27 in NW 2.0 mph 10.0 mph 49% 0.00 in
12:34 50.5 °F 32.5 °F 30.27 in NNW 2.0 mph 7.0 mph 50% 0.00 in
12:39 49.6 °F 30.7 °F 30.27 in North 5.0 mph 6.0 mph 48% 0.00 in
12:44 50.3 °F 33.8 °F 30.26 in NNE 4.0 mph 5.0 mph 53% 0.00 in
12:49 51.1 °F 33.1 °F 30.26 in North 4.0 mph 7.0 mph 50% 0.00 in
12:54 50.8 °F 32.3 °F 30.26 in NW 3.0 mph 8.0 mph 49% 0.00 in
12:59 51.7 °F 32.6 °F 30.26 in NW 4.0 mph 10.0 mph 48% 0.00 in
13:04 50.7 °F 32.7 °F 30.26 in NW 4.0 mph 10.0 mph 50% 0.00 in
13:09 49.9 °F 31.0 °F 30.26 in North 4.0 mph 11.0 mph 48% 0.00 in
13:14 50.0 °F 31.6 °F 30.26 in North 5.0 mph 11.0 mph 49% 0.00 in
13:19 49.6 °F 30.7 °F 30.26 in NE 4.0 mph 11.0 mph 48% 0.00 in
13:24 49.9 °F 32.0 °F 30.26 in NNE 5.0 mph 11.0 mph 50% 0.00 in
13:29 50.1 °F 30.1 °F 30.26 in NNE 4.0 mph 14.0 mph 46% 0.00 in
13:34 49.9 °F 31.0 °F 30.26 in NW 4.0 mph 9.0 mph 48% 0.00 in
13:39 51.5 °F 33.0 °F 30.26 in North 3.0 mph 7.0 mph 49% 0.00 in
13:44 50.8 °F 33.3 °F 30.26 in NNE 3.0 mph 9.0 mph 51% 0.00 in
13:49 50.4 °F 33.9 °F 30.26 in NNE 6.0 mph 9.0 mph 53% 0.00 in
13:54 49.9 °F 33.4 °F 30.25 in North 4.0 mph 10.0 mph 53% 0.00 in
13:59 49.9 °F 33.0 °F 30.26 in North 4.0 mph 10.0 mph 52% 0.00 in
14:04 49.9 °F 32.5 °F 30.25 in NNE 4.0 mph 7.0 mph 51% 0.00 in
14:09 50.3 °F 34.7 °F 30.25 in ENE 7.0 mph 8.0 mph 55% 0.00 in
14:14 50.4 °F 33.9 °F 30.25 in NNE 4.0 mph 8.0 mph 53% 0.00 in
14:19 50.1 °F 34.1 °F 30.25 in North 3.0 mph 7.0 mph 54% 0.00 in
14:24 50.2 °F 32.8 °F 30.25 in North 4.0 mph 8.0 mph 51% 0.00 in
14:29 49.7 °F 33.2 °F 30.25 in NNE 5.0 mph 8.0 mph 53% 0.00 in
14:34 49.7 °F 33.7 °F 30.25 in NNE 4.0 mph 8.0 mph 54% 0.00 in
14:39 49.8 °F 33.8 °F 30.25 in NNE 3.0 mph 9.0 mph 54% 0.00 in
14:44 51.3 °F 34.7 °F 30.25 in North 5.0 mph 11.0 mph 53% 0.00 in
14:49 52.8 °F 34.7 °F 30.25 in NW 2.0 mph 7.0 mph 50% 0.00 in
14:54 51.8 °F 33.2 °F 30.25 in North 5.0 mph 9.0 mph 49% 0.00 in
14:59 50.4 °F 33.4 °F 30.25 in North 4.0 mph 9.0 mph 52% 0.00 in
15:04 50.7 °F 32.7 °F 30.25 in NNE 4.0 mph 10.0 mph 50% 0.00 in
15:09 50.7 °F 34.2 °F 30.25 in NNE 4.0 mph 10.0 mph 53% 0.00 in
15:14 51.5 °F 34.9 °F 30.25 in NE 7.0 mph 11.0 mph 53% 0.00 in
15:19 51.2 °F 33.2 °F 30.25 in North 5.0 mph 10.0 mph 50% 0.00 in
15:24 52.5 °F 33.4 °F 30.25 in NNW 7.0 mph 10.0 mph 48% 0.00 in
15:29 51.6 °F 31.5 °F 30.25 in North 5.0 mph 11.0 mph 46% 0.00 in
15:34 51.0 °F 32.0 °F 30.25 in NNW 5.0 mph 11.0 mph 48% 0.00 in
15:39 51.2 °F 33.2 °F 30.25 in NNW 5.0 mph 11.0 mph 50% 0.00 in
15:44 51.6 °F 33.0 °F 30.25 in NW 4.0 mph 8.0 mph 49% 0.00 in
15:49 52.1 °F 32.5 °F 30.26 in NW 5.0 mph 9.0 mph 47% 0.00 in
15:54 51.2 °F 32.7 °F 30.26 in NNW 4.0 mph 9.0 mph 49% 0.00 in
15:59 51.2 °F 32.7 °F 30.26 in NW 7.0 mph 10.0 mph 49% 0.00 in
16:04 51.2 °F 33.7 °F 30.26 in North 6.0 mph 8.0 mph 51% 0.00 in
16:09 51.1 °F 33.1 °F 30.26 in NNE 4.0 mph 11.0 mph 50% 0.00 in
16:14 50.7 °F 32.7 °F 30.27 in North 4.0 mph 7.0 mph 50% 0.00 in
16:19 51.0 °F 33.5 °F 30.27 in NNE 4.0 mph 8.0 mph 51% 0.00 in
16:24 50.4 °F 32.4 °F 30.27 in North 7.0 mph 10.0 mph 50% 0.00 in
16:29 50.6 °F 32.6 °F 30.27 in North 6.0 mph 10.0 mph 50% 0.00 in
16:34 49.7 °F 31.3 °F 30.27 in North 4.0 mph 10.0 mph 49% 0.00 in
16:39 49.7 °F 31.3 °F 30.27 in NNW 4.0 mph 9.0 mph 49% 0.00 in
16:44 50.2 °F 32.3 °F 30.27 in NNW 4.0 mph 12.0 mph 50% 0.00 in
16:49 50.9 °F 32.4 °F 30.27 in NNW 4.0 mph 12.0 mph 49% 0.00 in
16:54 50.1 °F 30.6 °F 30.27 in NNW 3.0 mph 8.0 mph 47% 0.00 in
16:59 50.2 °F 31.8 °F 30.27 in NE 2.0 mph 9.0 mph 49% 0.00 in
17:04 50.1 °F 31.7 °F 30.27 in North 5.0 mph 9.0 mph 49% 0.00 in
17:09 49.9 °F 31.5 °F 30.26 in North 5.0 mph 10.0 mph 49% 0.00 in
17:14 49.6 °F 31.7 °F 30.27 in North 5.0 mph 10.0 mph 50% 0.00 in
17:19 49.3 °F 30.9 °F 30.27 in North 5.0 mph 10.0 mph 49% 0.00 in
17:24 49.1 °F 30.7 °F 30.27 in NNW 11.0 mph 11.0 mph 49% 0.00 in
17:29 49.0 °F 31.2 °F 30.27 in NNW 8.0 mph 12.0 mph 50% 0.00 in
17:34 48.8 °F 30.5 °F 30.27 in NNW 2.0 mph 10.0 mph 49% 0.00 in
17:39 48.7 °F 30.4 °F 30.27 in North 4.0 mph 10.0 mph 49% 0.00 in
17:44 48.5 °F 30.7 °F 30.27 in NNE 5.0 mph 11.0 mph 50% 0.00 in
17:49 48.4 °F 30.6 °F 30.27 in NNE 5.0 mph 11.0 mph 50% 0.00 in
17:54 48.3 °F 30.5 °F 30.27 in NNE 5.0 mph 7.0 mph 50% 0.00 in
17:59 48.0 °F 30.2 °F 30.27 in North 2.0 mph 7.0 mph 50% 0.00 in
18:04 48.1 °F 30.3 °F 30.28 in NNE 3.0 mph 9.0 mph 50% 0.00 in
18:09 47.9 °F 30.1 °F 30.28 in NNE 5.0 mph 10.0 mph 50% 0.00 in
18:14 47.8 °F 30.0 °F 30.28 in North 4.0 mph 10.0 mph 50% 0.00 in
18:19 47.6 °F 29.9 °F 30.28 in North 4.0 mph 10.0 mph 50% 0.00 in
18:24 47.5 °F 30.7 °F 30.28 in NNE 4.0 mph 9.0 mph 52% 0.00 in
18:29 47.2 °F 30.5 °F 30.28 in NNE 5.0 mph 8.0 mph 52% 0.00 in
18:34 46.9 °F 30.6 °F 30.28 in NNE 3.0 mph 6.0 mph 53% 0.00 in
18:39 46.7 °F 30.0 °F 30.28 in North 4.0 mph 8.0 mph 52% 0.00 in
18:44 46.7 °F 30.0 °F 30.28 in North 4.0 mph 9.0 mph 52% 0.00 in
18:49 46.8 °F 30.6 °F 30.28 in NNE 4.0 mph 14.0 mph 53% 0.00 in
18:54 46.6 °F 31.3 °F 30.28 in NE 4.0 mph 14.0 mph 55% 0.00 in
18:59 46.2 °F 30.5 °F 30.28 in North 6.0 mph 7.0 mph 54% 0.00 in
19:04 46.0 °F 30.7 °F 30.28 in NNE 5.0 mph 8.0 mph 55% 0.00 in
19:09 45.8 °F 30.5 °F 30.28 in ENE 5.0 mph 10.0 mph 55% 0.00 in
19:14 45.7 °F 30.4 °F 30.28 in NNE 4.0 mph 11.0 mph 55% 0.00 in
19:19 45.5 °F 30.3 °F 30.28 in NE 5.0 mph 11.0 mph 55% 0.00 in
19:24 45.4 °F 30.6 °F 30.28 in NE 4.0 mph 10.0 mph 56% 0.00 in
19:29 45.4 °F 30.6 °F 30.28 in NE 3.0 mph 7.0 mph 56% 0.00 in
19:34 45.2 °F 30.4 °F 30.28 in NE 4.0 mph 10.0 mph 56% 0.00 in
19:39 45.0 °F 30.2 °F 30.28 in NE 4.0 mph 10.0 mph 56% 0.00 in
19:44 44.9 °F 30.1 °F 30.28 in NE 4.0 mph 9.0 mph 56% 0.00 in
19:49 44.7 °F 30.0 °F 30.28 in NNE 4.0 mph 8.0 mph 56% 0.00 in
19:54 44.6 °F 30.3 °F 30.29 in ENE 2.0 mph 7.0 mph 57% 0.00 in
19:59 44.5 °F 30.2 °F 30.29 in NNE 2.0 mph 7.0 mph 57% 0.00 in
20:04 44.3 °F 30.0 °F 30.29 in NNE 3.0 mph 5.0 mph 57% 0.00 in
20:09 44.2 °F 30.3 °F 30.29 in NE 2.0 mph 5.0 mph 58% 0.00 in
20:14 44.0 °F 30.2 °F 30.30 in NE 3.0 mph 6.0 mph 58% 0.00 in
20:19 44.0 °F 30.2 °F 30.29 in NE 3.0 mph 5.0 mph 58% 0.00 in
20:24 44.0 °F 30.2 °F 30.30 in NE 3.0 mph 5.0 mph 58% 0.00 in
20:29 44.0 °F 29.7 °F 30.30 in NE 3.0 mph 7.0 mph 57% 0.00 in
20:34 43.8 °F 30.0 °F 30.30 in NE 4.0 mph 9.0 mph 58% 0.00 in
20:39 43.6 °F 29.8 °F 30.31 in NE 3.0 mph 9.0 mph 58% 0.00 in
20:44 43.4 °F 29.6 °F 30.31 in NE 2.0 mph 6.0 mph 58% 0.00 in
20:49 43.3 °F 29.9 °F 30.31 in NNE 1.0 mph 4.0 mph 59% 0.00 in
20:54 43.1 °F 29.7 °F 30.30 in NNE 2.0 mph 5.0 mph 59% 0.00 in
20:59 42.9 °F 30.0 °F 30.31 in NE 1.0 mph 4.0 mph 60% 0.00 in
21:04 42.9 °F 29.5 °F 30.31 in NE 3.0 mph 4.0 mph 59% 0.00 in
21:09 42.8 °F 29.9 °F 30.31 in NE 3.0 mph 4.0 mph 60% 0.00 in
21:14 42.6 °F 29.7 °F 30.30 in NE 5.0 mph 5.0 mph 60% 0.00 in
21:19 42.5 °F 29.6 °F 30.30 in ENE 4.0 mph 7.0 mph 60% 0.00 in
21:24 42.5 °F 30.0 °F 30.30 in NE 4.0 mph 7.0 mph 61% 0.00 in
21:29 42.3 °F 29.8 °F 30.30 in NE 4.0 mph 8.0 mph 61% 0.00 in
21:34 42.0 °F 29.5 °F 30.29 in NE 4.0 mph 8.0 mph 61% 0.00 in
21:39 41.9 °F 29.8 °F 30.30 in NE 6.0 mph 10.0 mph 62% 0.00 in
21:44 41.9 °F 29.8 °F 30.30 in NE 4.0 mph 10.0 mph 62% 0.00 in
21:49 41.8 °F 29.7 °F 30.30 in NE 5.0 mph 10.0 mph 62% 0.00 in
21:54 41.6 °F 29.9 °F 30.30 in ENE 7.0 mph 8.0 mph 63% 0.00 in
21:59 41.4 °F 29.7 °F 30.29 in East 6.0 mph 8.0 mph 63% 0.00 in
22:04 41.2 °F 29.5 °F 30.29 in NE 6.0 mph 6.0 mph 63% 0.00 in
22:09 41.0 °F 29.4 °F 30.29 in NE 2.0 mph 9.0 mph 63% 0.00 in
22:14 40.8 °F 29.6 °F 30.29 in NE 2.0 mph 6.0 mph 64% 0.00 in
22:19 40.6 °F 29.4 °F 30.29 in ENE 3.0 mph 8.0 mph 64% 0.00 in
22:24 40.5 °F 29.7 °F 30.29 in ENE 2.0 mph 8.0 mph 65% 0.00 in
22:29 40.4 °F 29.6 °F 30.29 in ENE 3.0 mph 6.0 mph 65% 0.00 in
22:34 40.4 °F 29.6 °F 30.28 in NE 3.0 mph 7.0 mph 65% 0.00 in
22:39 40.3 °F 29.5 °F 30.28 in ENE 3.0 mph 7.0 mph 65% 0.00 in
22:44 40.2 °F 29.4 °F 30.28 in ENE 3.0 mph 6.0 mph 65% 0.00 in
22:49 40.2 °F 29.4 °F 30.27 in NE 3.0 mph 7.0 mph 65% 0.00 in
22:54 40.0 °F 29.2 °F 30.27 in NE 2.0 mph 5.0 mph 65% 0.00 in
22:59 39.9 °F 29.1 °F 30.27 in NE 3.0 mph 6.0 mph 65% 0.00 in
23:04 39.9 °F 28.7 °F 30.27 in ENE 3.0 mph 6.0 mph 64% 0.00 in
23:09 39.8 °F 29.0 °F 30.26 in East 2.0 mph 5.0 mph 65% 0.00 in
23:14 39.6 °F 28.8 °F 30.26 in ENE 2.0 mph 8.0 mph 65% 0.00 in
23:19 39.4 °F 28.6 °F 30.26 in ENE 3.0 mph 8.0 mph 65% 0.00 in
23:24 39.3 °F 28.5 °F 30.26 in East 3.0 mph 7.0 mph 65% 0.00 in
23:29 39.1 °F 28.3 °F 30.26 in East 2.0 mph 7.0 mph 65% 0.00 in
23:34 38.8 °F 28.0 °F 30.26 in ENE 2.0 mph 6.0 mph 65% 0.00 in
23:39 38.5 °F 28.1 °F 30.26 in East 2.0 mph 5.0 mph 66% 0.00 in
23:44 38.3 °F 28.3 °F 30.26 in East 1.0 mph 5.0 mph 67% 0.00 in
23:49 38.2 °F 28.2 °F 30.26 in East 2.0 mph 5.0 mph 67% 0.00 in
23:54 38.0 °F 28.0 °F 30.25 in East 1.0 mph 5.0 mph 67% 0.00 in
23:59 37.9 °F 28.3 °F 30.25 in ENE 4.0 mph 5.0 mph 68% 0.00 in
Buffalo, New York, USA
Compliments of Weather Underground - 2.5 mb